»·PEaware :: UAL428 KDEN-KSLC

UAL428 :: KDEN-KSLC

FLIGHT INFORMATION

Flight Status: Arrived
Operator:
United Airlines
More flights by this operator :: More flights under this callsign
Pilot: Pratham R. (19019)
Aircraft: AIRBUS A320
(A320)
More flights by this aircraft type
Origin: KDEN Denver Intl
United States
Destination: KSLC Salt Lake City Intl
United States
More flights between these airports :: More routes between these airports
Route: FOOOT4 RLG EKR LEEHY5
File this flight plan on PilotEdge
Remarks: PBN / A1B1C1D1O1S1 DOF / 190104 REG / N428UA EET / KZLC0032 OPR / UAL PER / C TALT / KCOS RMK / TCAS SIMBRIEF
Altitude:
(Current/Filed)
36,000ft
Speed:
(Current/Filed)
459kts
Departed: 11-Jan-19 04:34 PM
Arrived: 11-Jan-19 05:33 PM
Distance/Time
Traveled:
339nm/0:58
Distance/Time
To Go:
Arrived

Flight Plot

Page will automatically refresh every two minutes.

Flight plan parsing failed; only flown route is shown


Map Options




Map Legend


Flown Route
Filed Route
Departure Airport
Arrival Airport
Navaid (VOR, NDB)
Fix

Horizontal Profiles

Position Reports

Time Latitude Longitude Heading Altitude Ground
Speed
11-Jan-19 15:56 39.863554 -104.678304 177 5443ft 0kts
11-Jan-19 15:57 39.863554 -104.678304 177 5443ft 0kts
11-Jan-19 15:58 39.863554 -104.678304 177 5443ft 0kts
11-Jan-19 15:59 39.863554 -104.678304 177 5443ft 0kts
11-Jan-19 16:00 39.863554 -104.678304 177 5443ft 0kts
11-Jan-19 16:01 39.863554 -104.678304 177 5443ft 0kts
11-Jan-19 16:02 39.863554 -104.678304 177 5443ft 0kts
11-Jan-19 16:03 39.863554 -104.678304 177 5443ft 0kts
11-Jan-19 16:04 39.863554 -104.678304 177 5443ft 0kts
11-Jan-19 16:05 39.863554 -104.678304 177 5443ft 0kts
11-Jan-19 16:06 39.863554 -104.678304 177 5443ft 0kts
11-Jan-19 16:07 39.863554 -104.678304 177 5443ft 0kts
11-Jan-19 16:08 39.863554 -104.678304 177 5443ft 0kts
11-Jan-19 16:09 39.863554 -104.678304 177 5443ft 0kts
11-Jan-19 16:09 39.863554 -104.678304 177 5443ft 0kts
11-Jan-19 16:10 39.863554 -104.678304 177 5443ft 0kts
11-Jan-19 16:11 39.863554 -104.678304 177 5443ft 0kts
11-Jan-19 16:13 39.863554 -104.678304 177 5443ft 0kts
11-Jan-19 16:13 39.863554 -104.678304 177 5443ft 0kts
11-Jan-19 16:14 39.863554 -104.678304 177 5443ft 0kts
11-Jan-19 16:15 39.863554 -104.678304 177 5443ft 0kts
11-Jan-19 16:16 39.863554 -104.678304 177 5443ft 0kts
11-Jan-19 16:17 39.863554 -104.678304 177 5443ft 0kts
11-Jan-19 16:18 39.863554 -104.678304 177 5443ft 0kts
11-Jan-19 16:19 39.863554 -104.678304 177 5443ft 0kts
11-Jan-19 16:20 39.863554 -104.678304 177 5443ft 0kts
11-Jan-19 16:21 39.863554 -104.678304 177 5443ft 0kts
11-Jan-19 16:22 39.863691 -104.678310 177 5443ft 2kts
11-Jan-19 16:23 39.864137 -104.678009 254 5443ft 2kts
11-Jan-19 16:24 39.864151 -104.677814 269 5443ft 0kts
11-Jan-19 16:25 39.864151 -104.677815 269 5443ft 0kts
11-Jan-19 16:26 39.864151 -104.677815 269 5443ft 0kts
11-Jan-19 16:27 39.864151 -104.677815 269 5443ft 0kts
11-Jan-19 16:28 39.864151 -104.677815 269 5443ft 0kts
11-Jan-19 16:29 39.864152 -104.677952 270 5443ft 0kts
11-Jan-19 16:30 39.864779 -104.680738 266 5443ft 8kts
11-Jan-19 16:31 39.864253 -104.683343 272 5443ft 6kts
11-Jan-19 16:32 39.864269 -104.686172 271 5443ft 13kts
11-Jan-19 16:33 39.871264 -104.687077 0 5443ft 108kts
11-Jan-19 16:34 39.908360 -104.708434 290 7883ft 197kts
11-Jan-19 16:35 39.922944 -104.789483 287 9878ft 283kts
11-Jan-19 16:36 39.941099 -104.892409 284 11425ft 342kts
11-Jan-19 16:37 39.949619 -105.016632 280 14904ft 348kts
11-Jan-19 16:38 39.964210 -105.142620 279 17677ft 363kts
11-Jan-19 16:39 39.979481 -105.274917 279 20185ft 376kts
11-Jan-19 16:40 39.982651 -105.412903 268 22409ft 390kts
11-Jan-19 16:41 39.978242 -105.555431 268 24403ft 401kts
11-Jan-19 16:42 39.974014 -105.701303 268 26191ft 412kts
11-Jan-19 16:43 39.971517 -105.851845 271 27832ft 422kts
11-Jan-19 16:44 39.979300 -106.004749 274 29299ft 431kts
11-Jan-19 16:45 39.987856 -106.161570 274 30631ft 440kts
11-Jan-19 16:46 39.996426 -106.322780 273 31833ft 448kts
11-Jan-19 16:47 40.004739 -106.484226 273 33372ft 443kts
11-Jan-19 16:48 40.012563 -106.644004 273 34707ft 441kts
11-Jan-19 16:49 40.019548 -106.790322 272 35878ft 438kts
11-Jan-19 16:50 40.027330 -106.958156 273 36148ft 433kts
11-Jan-19 16:51 40.034423 -107.115601 274 36167ft 436kts
11-Jan-19 16:52 40.040331 -107.250767 274 36196ft 437kts
11-Jan-19 16:53 40.047669 -107.423942 274 36202ft 437kts
11-Jan-19 16:54 40.054193 -107.583276 274 36195ft 437kts
11-Jan-19 16:55 40.060381 -107.739609 274 36192ft 436kts
11-Jan-19 16:56 40.066459 -107.898651 274 36193ft 436kts
11-Jan-19 16:57 40.073467 -108.056654 274 36190ft 436kts
11-Jan-19 16:58 40.080645 -108.216291 274 36192ft 436kts
11-Jan-19 16:59 40.087554 -108.375501 274 36191ft 436kts
11-Jan-19 17:00 40.093950 -108.527647 274 36199ft 436kts
11-Jan-19 17:01 40.100187 -108.680830 274 36219ft 436kts
11-Jan-19 17:02 40.105890 -108.825465 274 36238ft 437kts
11-Jan-19 17:03 40.112407 -108.996683 274 36248ft 437kts
11-Jan-19 17:04 40.118218 -109.155318 276 36261ft 434kts
11-Jan-19 17:05 40.123838 -109.314552 276 36234ft 433kts
11-Jan-19 17:06 40.129222 -109.473262 276 36226ft 433kts
11-Jan-19 17:07 40.134178 -109.625360 276 36228ft 433kts
11-Jan-19 17:08 40.139170 -109.785225 276 36236ft 434kts
11-Jan-19 17:09 40.143914 -109.944187 276 36242ft 434kts
11-Jan-19 17:10 40.148446 -110.103355 276 36244ft 434kts
11-Jan-19 17:11 40.148066 -110.263556 273 36219ft 436kts
11-Jan-19 17:12 40.146676 -110.420921 273 36186ft 436kts
11-Jan-19 17:13 40.145106 -110.576374 273 34440ft 448kts
11-Jan-19 17:14 40.143143 -110.746210 272 31049ft 457kts
11-Jan-19 17:15 40.140936 -110.912112 272 28609ft 445kts
11-Jan-19 17:16 40.138639 -111.070300 274 26289ft 431kts
11-Jan-19 17:17 40.136184 -111.225594 274 24322ft 416kts
11-Jan-19 17:18 40.133634 -111.376475 273 21654ft 423kts
11-Jan-19 17:19 40.131036 -111.524819 275 19257ft 407kts
11-Jan-19 17:20 40.170358 -111.656567 299 16875ft 380kts
11-Jan-19 17:21 40.232599 -111.754470 317 14823ft 355kts
11-Jan-19 17:22 40.300589 -111.841630 324 12683ft 342kts
11-Jan-19 17:23 40.368612 -111.910342 324 11158ft 318kts
11-Jan-19 17:24 40.439118 -111.933999 355 9584ft 276kts
11-Jan-19 17:25 40.504801 -111.941926 354 9009ft 213kts
11-Jan-19 17:26 40.552598 -111.947320 354 8649ft 192kts
11-Jan-19 17:27 40.594667 -111.952206 354 7766ft 204kts
11-Jan-19 17:28 40.641651 -111.957688 354 6890ft 179kts
11-Jan-19 17:29 40.679340 -111.962064 354 6093ft 155kts
11-Jan-19 17:30 40.722234 -111.967040 353 5287ft 135kts
11-Jan-19 17:31 40.767927 -111.972290 353 4396ft 140kts
11-Jan-19 17:32 40.791103 -111.975236 349 4236ft 18kts
11-Jan-19 17:33 40.792161 -111.976773 235 4236ft 8kts
11-Jan-19 17:34 40.789605 -111.977336 231 4236ft 7kts
11-Jan-19 17:35 40.789140 -111.977999 225 4236ft 0kts
11-Jan-19 17:36 40.789140 -111.977999 225 4236ft 0kts
11-Jan-19 17:37 40.789140 -111.977999 225 4236ft 0kts
11-Jan-19 17:38 40.789140 -111.977999 225 4236ft 0kts
11-Jan-19 17:39 40.789140 -111.977999 225 4236ft 0kts
11-Jan-19 17:40 40.789140 -111.977999 225 4236ft 0kts
11-Jan-19 17:41 40.789140 -111.977999 225 4236ft 0kts
11-Jan-19 17:42 40.789140 -111.977999 225 4236ft 0kts
11-Jan-19 17:43 40.789140 -111.977999 225 4236ft 0kts
11-Jan-19 17:44 40.789140 -111.977999 225 4236ft 0kts
11-Jan-19 17:45 40.789140 -111.977999 225 4236ft 0kts
11-Jan-19 17:46 40.789140 -111.977999 225 4236ft 0kts

Navigation Log

Ident Type
Flight plan parsing failed, navigation log unavailable